Time;durP1;ratioP1;P1;durP2;ratioP2;P2;SDS_P1;SDS_P2;PMS_P1;PMS_P2;Temp;Humidity;BMP_temperature;BMP_pressure;BME280_temperature;BME280_humidity;BME280_pressure;Samples;Min_cycle;Max_cycle;Signal;HPM_P1;HPM_P2
2024/01/09 00:02:19;;;;;;;4.57;2.47;;;-3.10;99.90;;;;;;5054605;28;20443;-72
2024/01/09 00:04:45;;;;;;;2.83;1.75;;;-3.10;99.90;;;;;;5043962;28;20135;-72
2024/01/09 00:07:10;;;;;;;2.17;2.08;;;-3.10;99.90;;;;;;5067486;28;20068;-72
2024/01/09 00:09:36;;;;;;;3.80;2.53;;;-3.10;99.90;;;;;;5066559;28;20036;-71
2024/01/09 00:12:02;;;;;;;1.65;1.55;;;-3.20;99.90;;;;;;5063244;28;20089;-72
2024/01/09 00:14:28;;;;;;;3.05;1.92;;;-3.20;99.90;;;;;;5066853;28;20113;-72
2024/01/09 00:16:53;;;;;;;1.15;1.15;;;-3.20;99.90;;;;;;5067294;28;20049;-72
2024/01/09 00:19:19;;;;;;;2.53;2.33;;;-3.30;99.90;;;;;;5059318;28;20030;-72
2024/01/09 00:21:48;;;;;;;1.83;1.73;;;-3.30;99.90;;;;;;5068863;28;20520;-72
2024/01/09 00:24:13;;;;;;;3.85;1.65;;;-3.30;99.90;;;;;;5050554;28;20036;-72
2024/01/09 00:26:43;;;;;;;1.25;1.25;;;-3.30;99.90;;;;;;5055345;28;20144;-72
2024/01/09 00:29:09;;;;;;;1.83;1.63;;;-3.30;99.90;;;;;;5048234;28;20053;-73
2024/01/09 00:31:34;;;;;;;1.98;1.88;;;-3.30;99.90;;;;;;5046557;28;20086;-73
2024/01/09 00:34:00;;;;;;;1.73;1.63;;;-3.40;99.90;;;;;;5054149;28;20040;-73
2024/01/09 00:36:26;;;;;;;2.63;2.28;;;-3.40;99.90;;;;;;5038905;28;20094;-72
2024/01/09 00:38:52;;;;;;;5.40;1.85;;;-3.40;99.90;;;;;;5034854;28;20457;-72
2024/01/09 00:41:18;;;;;;;1.80;1.70;;;-3.50;99.90;;;;;;5066174;28;20051;-73
2024/01/09 00:43:44;;;;;;;1.30;0.95;;;-3.40;99.90;;;;;;5051078;28;20045;-73
2024/01/09 00:46:09;;;;;;;1.35;1.25;;;-3.50;99.90;;;;;;5032952;28;20048;-73
2024/01/09 00:48:35;;;;;;;3.17;1.73;;;-3.50;99.90;;;;;;5044558;28;20044;-73
2024/01/09 00:51:01;;;;;;;2.05;1.90;;;-3.50;99.90;;;;;;5055484;28;20060;-74
2024/01/09 00:53:27;;;;;;;1.63;1.52;;;-3.50;99.90;;;;;;5050508;28;20047;-73
2024/01/09 00:55:52;;;;;;;2.17;1.98;;;-3.50;99.90;;;;;;5035719;28;20033;-73
2024/01/09 00:58:18;;;;;;;1.23;1.15;;;-3.50;99.90;;;;;;5045486;28;20538;-73
2024/01/09 01:00:43;;;;;;;0.80;0.80;;;-3.60;99.90;;;;;;5037118;28;20171;-74
2024/01/09 01:03:09;;;;;;;3.58;2.42;;;-3.60;99.90;;;;;;5038218;28;20036;-73
2024/01/09 01:05:35;;;;;;;2.55;1.80;;;-3.60;99.90;;;;;;5045306;28;20044;-74
2024/01/09 01:08:01;;;;;;;1.98;1.70;;;-3.60;99.90;;;;;;5045391;28;20033;-73
2024/01/09 01:10:26;;;;;;;1.27;1.27;;;-3.60;99.90;;;;;;5035451;28;20037;-73
2024/01/09 01:12:52;;;;;;;2.72;2.40;;;-3.60;99.90;;;;;;5061927;28;20040;-73
2024/01/09 01:15:18;;;;;;;1.95;1.85;;;-3.60;99.90;;;;;;5044882;28;20029;-73
2024/01/09 01:17:44;;;;;;;1.42;1.33;;;-3.70;99.90;;;;;;5033920;28;20114;-73
2024/01/09 01:20:10;;;;;;;2.15;1.90;;;-3.70;99.90;;;;;;5042188;28;20064;-74
2024/01/09 01:22:36;;;;;;;1.50;1.40;;;-3.70;99.90;;;;;;5054770;28;20029;-73
2024/01/09 01:25:02;;;;;;;1.10;1.10;;;-3.70;99.90;;;;;;5061595;28;20674;-72
2024/01/09 01:27:28;;;;;;;2.08;1.98;;;-3.70;99.90;;;;;;5048767;28;20036;-74
2024/01/09 01:29:54;;;;;;;1.67;1.58;;;-3.60;99.90;;;;;;5059391;28;20121;-73
2024/01/09 01:32:20;;;;;;;1.35;1.13;;;-3.60;99.90;;;;;;5032977;28;20041;-73
2024/01/09 01:34:46;;;;;;;1.92;1.77;;;-3.60;99.90;;;;;;5044995;28;20035;-73
2024/01/09 01:37:12;;;;;;;1.10;1.10;;;-3.70;99.90;;;;;;5046573;28;20032;-73
2024/01/09 01:39:37;;;;;;;1.98;1.65;;;-3.60;99.90;;;;;;5046276;28;20086;-73
2024/01/09 01:42:03;;;;;;;1.73;1.63;;;-3.70;99.90;;;;;;5058530;28;20041;-73
2024/01/09 01:44:29;;;;;;;1.50;1.45;;;-3.70;99.90;;;;;;5055036;28;20094;-73
2024/01/09 01:46:55;;;;;;;2.30;2.10;;;-3.70;99.90;;;;;;5045593;28;20049;-73
2024/01/09 01:49:21;;;;;;;1.98;1.70;;;-3.70;99.90;;;;;;5063121;28;20250;-74
2024/01/09 01:51:50;;;;;;;2.60;2.47;;;-3.70;99.90;;;;;;5064096;28;20051;-73
2024/01/09 01:54:16;;;;;;;;;;;-3.70;99.90;;;;;;5048969;28;20075;-73
2024/01/09 01:56:43;;;;;;;2.13;1.92;;;-3.70;99.90;;;;;;5056496;28;19959;-73
2024/01/09 01:59:10;;;;;;;4.07;2.33;;;-3.70;99.90;;;;;;5042637;28;20045;-73
2024/01/09 02:01:36;;;;;;;2.72;2.50;;;-3.70;99.90;;;;;;5056928;28;20115;-74
2024/01/09 02:04:03;;;;;;;1.15;1.15;;;-3.70;99.90;;;;;;5033116;28;20037;-74
2024/01/09 02:06:30;;;;;;;2.20;1.85;;;-3.70;99.90;;;;;;5038617;28;20043;-73
2024/01/09 02:08:56;;;;;;;1.63;1.52;;;-3.80;99.90;;;;;;5038515;28;20410;-73
2024/01/09 02:11:21;;;;;;;4.20;3.20;;;-3.80;99.90;;;;;;5055330;28;20036;-73
2024/01/09 02:13:47;;;;;;;2.28;1.95;;;-3.80;99.90;;;;;;5040631;28;20042;-74
2024/01/09 02:16:13;;;;;;;2.83;2.33;;;-3.80;99.90;;;;;;5055585;28;20055;-73
2024/01/09 02:18:39;;;;;;;1.80;1.60;;;-3.80;99.90;;;;;;5039644;28;20076;-73
2024/01/09 02:21:05;;;;;;;1.60;1.50;;;-3.80;99.90;;;;;;5057426;28;20036;-73
2024/01/09 02:23:30;;;;;;;2.47;1.92;;;-3.80;99.90;;;;;;5044991;28;20032;-73
2024/01/09 02:25:57;;;;;;;2.28;2.17;;;-3.80;99.90;;;;;;5058280;28;20046;-73
2024/01/09 02:28:33;;;;;;;2.42;2.22;;;-3.80;99.90;;;;;;5063307;28;20509;-74
2024/01/09 02:31:00;;;;;;;2.92;2.53;;;-3.90;99.90;;;;;;5047980;28;20057;-73
2024/01/09 02:33:27;;;;;;;2.88;1.60;;;-3.90;99.90;;;;;;5041976;28;20033;-73
2024/01/09 02:35:53;;;;;;;1.70;1.60;;;-3.90;99.90;;;;;;5042248;28;20041;-73
2024/01/09 02:38:21;;;;;;;2.20;2.03;;;-3.90;99.90;;;;;;5055740;28;20037;-73
2024/01/09 02:40:46;;;;;;;4.10;2.10;;;-3.90;99.90;;;;;;5061507;28;20056;-73
2024/01/09 02:43:12;;;;;;;1.48;1.30;;;-3.90;99.90;;;;;;5054971;28;20037;-72
2024/01/09 02:45:38;;;;;;;3.08;2.45;;;-4.00;99.90;;;;;;5059591;28;20470;-72
2024/01/09 02:48:04;;;;;;;1.75;1.65;;;-3.90;99.90;;;;;;5065724;28;20093;-72
2024/01/09 02:50:29;;;;;;;7.55;2.40;;;-4.00;99.90;;;;;;5044392;28;20033;-72
2024/01/09 02:52:55;;;;;;;1.15;1.08;;;-4.00;99.90;;;;;;5077765;28;20257;-71
2024/01/09 02:55:21;;;;;;;3.03;2.00;;;-4.00;99.90;;;;;;5066511;28;20058;-72
2024/01/09 02:57:47;;;;;;;1.50;1.40;;;-4.00;99.90;;;;;;5067963;28;20513;-74
2024/01/09 03:00:13;;;;;;;3.30;1.40;;;-4.00;99.90;;;;;;5068518;28;20506;-72
2024/01/09 03:02:38;;;;;;;3.10;1.92;;;-4.00;99.90;;;;;;5068401;28;20047;-72
2024/01/09 03:05:05;;;;;;;1.77;1.67;;;-4.10;99.90;;;;;;5068415;28;20486;-72
2024/01/09 03:07:31;;;;;;;1.60;1.60;;;-4.10;99.90;;;;;;5066908;28;20036;-73
2024/01/09 03:09:57;;;;;;;3.55;1.92;;;-4.10;99.90;;;;;;5051675;28;20037;-72
2024/01/09 03:12:22;;;;;;;2.08;1.98;;;-4.10;99.90;;;;;;5042722;28;20033;-74
2024/01/09 03:14:48;;;;;;;1.40;1.23;;;-4.10;99.90;;;;;;5047725;28;20040;-72
2024/01/09 03:17:13;;;;;;;2.08;1.63;;;-4.10;99.90;;;;;;5051927;28;20643;-72
2024/01/09 03:19:41;;;;;;;2.15;1.88;;;-4.20;99.90;;;;;;5068653;28;20498;-72
2024/01/09 03:22:06;;;;;;;1.35;1.25;;;-4.20;99.90;;;;;;5044661;28;20047;-71
2024/01/09 03:24:32;;;;;;;1.08;1.08;;;-4.20;99.90;;;;;;5068239;28;20045;-75
2024/01/09 03:26:58;;;;;;;1.50;1.40;;;-4.20;99.90;;;;;;5067665;28;20086;-73
2024/01/09 03:29:23;;;;;;;2.20;2.10;;;-4.20;99.90;;;;;;5064340;28;20063;-71
2024/01/09 03:31:49;;;;;;;13.35;2.22;;;-4.20;99.90;;;;;;5061037;28;20058;-72
2024/01/09 03:34:15;;;;;;;5.82;2.38;;;-4.20;99.90;;;;;;5068466;28;20037;-72
2024/01/09 03:36:43;;;;;;;2.65;2.45;;;-4.20;99.90;;;;;;5050822;28;20513;-72
2024/01/09 03:39:10;;;;;;;3.58;2.75;;;-4.30;99.90;;;;;;5047271;28;20032;-72
2024/01/09 03:41:36;;;;;;;1.42;1.33;;;-4.30;99.90;;;;;;5049946;28;20058;-71
2024/01/09 03:44:02;;;;;;;2.17;1.98;;;-4.30;99.90;;;;;;5062633;28;20490;-72
2024/01/09 03:46:28;;;;;;;1.48;1.38;;;-4.30;99.90;;;;;;5070624;28;20045;-74
2024/01/09 03:48:53;;;;;;;1.65;1.55;;;-4.30;99.90;;;;;;5064381;28;20043;-73
2024/01/09 03:51:19;;;;;;;1.73;1.50;;;-4.30;99.90;;;;;;5050477;28;20044;-72
2024/01/09 03:53:45;;;;;;;1.48;1.27;;;-4.30;99.90;;;;;;5067818;28;20127;-71
2024/01/09 03:56:11;;;;;;;4.65;2.17;;;-4.40;99.90;;;;;;5067536;28;20036;-71
2024/01/09 03:58:37;;;;;;;1.35;1.30;;;-4.40;99.90;;;;;;5045619;28;20447;-71
2024/01/09 04:01:03;;;;;;;2.80;2.60;;;-4.40;99.90;;;;;;5050894;28;20040;-71
2024/01/09 04:03:28;;;;;;;1.42;1.35;;;-4.40;99.90;;;;;;5064401;28;20418;-73
2024/01/09 04:05:54;;;;;;;2.20;2.05;;;-4.40;99.90;;;;;;5063695;28;20063;-73
2024/01/09 04:08:20;;;;;;;1.77;1.70;;;-4.40;99.90;;;;;;5045624;28;20052;-72
2024/01/09 04:10:45;;;;;;;0.90;0.90;;;-4.50;99.90;;;;;;5055993;28;20045;-75
2024/01/09 04:13:11;;;;;;;1.80;1.65;;;-4.50;99.90;;;;;;5050253;28;20041;-72
2024/01/09 04:15:38;;;;;;;2.92;1.52;;;-4.50;99.90;;;;;;5056329;28;20040;-72
2024/01/09 04:18:04;;;;;;;2.45;2.15;;;-4.50;99.90;;;;;;5050649;28;20048;-72
2024/01/09 04:20:30;;;;;;;2.85;2.08;;;-4.50;99.90;;;;;;5064373;28;20097;-73
2024/01/09 04:22:56;;;;;;;3.80;2.15;;;-4.60;99.90;;;;;;5050263;28;20047;-71
2024/01/09 04:25:21;;;;;;;3.10;2.90;;;-4.50;99.90;;;;;;5050947;28;20028;-71
2024/01/09 04:27:47;;;;;;;2.40;2.30;;;-4.60;99.90;;;;;;5063549;28;20048;-72
2024/01/09 04:30:13;;;;;;;1.13;1.13;;;-4.50;99.90;;;;;;5064965;28;20055;-72
2024/01/09 04:32:38;;;;;;;2.80;2.58;;;-4.60;99.90;;;;;;5045138;28;20044;-71
2024/01/09 04:35:07;;;;;;;1.25;1.25;;;-4.60;99.90;;;;;;5049870;28;20048;-73
2024/01/09 04:37:33;;;;;;;1.17;1.10;;;-4.60;99.90;;;;;;5066537;28;20032;-72
2024/01/09 04:39:59;;;;;;;2.33;2.05;;;-4.60;99.90;;;;;;5049613;28;20040;-72
2024/01/09 04:42:24;;;;;;;1.42;1.33;;;-4.60;99.90;;;;;;5046587;28;20131;-73
2024/01/09 04:44:50;;;;;;;0.77;0.77;;;-4.60;99.90;;;;;;5058687;28;20029;-72
2024/01/09 04:47:16;;;;;;;2.08;1.73;;;-4.60;99.90;;;;;;5050002;28;20036;-72
2024/01/09 04:49:43;;;;;;;4.55;1.85;;;-4.60;99.90;;;;;;5060276;28;20052;-72
2024/01/09 04:52:09;;;;;;;1.63;1.52;;;-4.60;99.90;;;;;;5039810;28;20036;-72
2024/01/09 04:54:34;;;;;;;2.80;2.03;;;-4.60;99.90;;;;;;5054786;28;20134;-72
2024/01/09 04:57:00;;;;;;;1.73;1.60;;;-4.60;99.90;;;;;;5040662;28;20087;-74
2024/01/09 04:59:26;;;;;;;2.47;1.98;;;-4.70;99.90;;;;;;5056025;28;20040;-74
2024/01/09 05:01:51;;;;;;;1.58;1.48;;;-4.70;99.90;;;;;;5046042;28;20037;-74
2024/01/09 05:04:17;;;;;;;2.63;2.40;;;-4.70;99.90;;;;;;5062047;28;20440;-74
2024/01/09 05:06:43;;;;;;;2.10;1.63;;;-4.70;99.90;;;;;;5052896;28;20494;-72
2024/01/09 05:09:09;;;;;;;1.30;1.20;;;-4.70;99.90;;;;;;5056395;28;20044;-72
2024/01/09 05:11:35;;;;;;;2.28;2.10;;;-4.70;99.90;;;;;;5047544;28;20123;-72
2024/01/09 05:14:01;;;;;;;1.70;1.60;;;-4.80;99.90;;;;;;5040787;28;20497;-72
2024/01/09 05:16:27;;;;;;;1.35;1.25;;;-4.80;99.90;;;;;;5047552;28;20737;-73
2024/01/09 05:18:53;;;;;;;1.35;1.30;;;-4.80;99.90;;;;;;5063516;28;20036;-72
2024/01/09 05:21:19;;;;;;;2.30;1.40;;;-4.80;99.90;;;;;;5040536;28;20068;-73
2024/01/09 05:23:45;;;;;;;4.10;1.10;;;-4.80;99.90;;;;;;5050407;28;20045;-72
2024/01/09 05:26:11;;;;;;;2.00;1.90;;;-4.80;99.90;;;;;;5045190;28;20044;-72
2024/01/09 05:28:37;;;;;;;2.50;1.77;;;-4.80;99.90;;;;;;5037349;28;20037;-72
2024/01/09 05:31:03;;;;;;;2.10;1.33;;;-4.80;99.90;;;;;;5043435;28;20091;-73
2024/01/09 05:33:28;;;;;;;1.42;1.33;;;-4.80;99.90;;;;;;5041654;28;20121;-72
2024/01/09 05:35:54;;;;;;;3.17;1.88;;;-4.80;99.90;;;;;;5061683;28;20041;-72
2024/01/09 05:38:20;;;;;;;3.83;2.83;;;-4.90;99.90;;;;;;5063812;28;20048;-72
2024/01/09 05:40:46;;;;;;;5.47;2.55;;;-4.80;99.90;;;;;;5048593;28;20123;-72
2024/01/09 05:43:12;;;;;;;1.73;1.63;;;-4.90;99.90;;;;;;5057305;28;20028;-72
2024/01/09 05:45:38;;;;;;;1.02;1.00;;;-4.90;99.90;;;;;;5050488;28;20123;-72
2024/01/09 05:48:04;;;;;;;2.08;1.98;;;-4.90;99.90;;;;;;5064389;28;20512;-72
2024/01/09 05:50:30;;;;;;;2.20;2.03;;;-4.90;99.90;;;;;;5036953;28;20607;-72
2024/01/09 05:52:56;;;;;;;2.00;1.90;;;-4.90;99.90;;;;;;5047840;28;20069;-72
2024/01/09 05:55:22;;;;;;;1.83;1.73;;;-4.90;99.90;;;;;;5054829;28;20037;-73
2024/01/09 05:57:48;;;;;;;0.85;0.85;;;-4.90;99.90;;;;;;5053824;28;20049;-72
2024/01/09 06:00:15;;;;;;;2.60;1.42;;;-4.90;99.90;;;;;;5042264;28;20410;-72
2024/01/09 06:02:40;;;;;;;2.20;2.10;;;-5.00;99.90;;;;;;5054663;28;20071;-72
2024/01/09 06:05:06;;;;;;;1.50;1.40;;;-5.00;99.90;;;;;;5062441;28;20060;-72
2024/01/09 06:07:32;;;;;;;3.63;1.90;;;-5.00;99.90;;;;;;5059914;28;20033;-72
2024/01/09 06:09:58;;;;;;;1.83;1.73;;;-4.90;99.90;;;;;;5062134;28;20052;-72
2024/01/09 06:12:24;;;;;;;3.63;1.60;;;-5.00;99.90;;;;;;5056281;28;20059;-72
2024/01/09 06:14:50;;;;;;;1.30;1.25;;;-5.00;99.90;;;;;;5042995;28;20068;-72
2024/01/09 06:17:16;;;;;;;4.10;2.95;;;-5.00;99.90;;;;;;5063212;28;20069;-72
2024/01/09 06:19:41;;;;;;;3.63;2.67;;;-5.00;99.90;;;;;;5056881;28;20037;-72
2024/01/09 06:22:07;;;;;;;2.78;2.55;;;-5.00;99.90;;;;;;5055313;28;20040;-72
2024/01/09 06:24:33;;;;;;;2.35;1.60;;;-5.00;99.90;;;;;;5039399;28;20037;-72
2024/01/09 06:26:59;;;;;;;1.98;1.88;;;-5.00;99.90;;;;;;5048104;28;20039;-72
2024/01/09 06:29:24;;;;;;;2.25;2.03;;;-5.00;99.90;;;;;;5047914;28;20667;-72
2024/01/09 06:31:50;;;;;;;2.60;2.40;;;-5.10;99.90;;;;;;5045075;28;20975;-72
2024/01/09 06:34:16;;;;;;;1.40;1.27;;;-5.10;99.90;;;;;;5063898;28;20110;-72
2024/01/09 06:36:45;;;;;;;3.45;3.22;;;-5.10;99.90;;;;;;5060855;28;20044;-73
2024/01/09 06:39:12;;;;;;;1.60;1.50;;;-5.10;99.90;;;;;;5057020;28;20041;-72
2024/01/09 06:41:37;;;;;;;3.08;2.53;;;-5.10;99.90;;;;;;5048223;28;20072;-72
2024/01/09 06:44:03;;;;;;;0.40;0.40;;;-5.10;99.90;;;;;;5050078;28;20079;-72
2024/01/09 06:46:30;;;;;;;2.33;1.52;;;-5.10;99.90;;;;;;5054508;28;20136;-72
2024/01/09 06:48:55;;;;;;;0.50;0.50;;;-5.10;99.90;;;;;;5039971;28;20045;-72
2024/01/09 06:51:21;;;;;;;1.30;1.30;;;-5.10;99.90;;;;;;5056907;28;20047;-72
2024/01/09 06:53:47;;;;;;;2.72;1.70;;;-5.10;99.90;;;;;;5053931;28;20124;-72
2024/01/09 06:56:12;;;;;;;0.63;0.63;;;-5.20;99.90;;;;;;5053913;28;20498;-72
2024/01/09 06:58:39;;;;;;;1.25;1.17;;;-5.20;99.90;;;;;;5060880;28;20040;-72
2024/01/09 07:01:05;;;;;;;0.93;0.88;;;-5.20;99.90;;;;;;5040745;28;20039;-72
2024/01/09 07:03:31;;;;;;;2.50;2.35;;;-5.20;99.90;;;;;;5043902;28;20137;-72
2024/01/09 07:05:57;;;;;;;2.40;2.30;;;-5.20;99.90;;;;;;5057063;28;20119;-72
2024/01/09 07:08:23;;;;;;;3.78;2.58;;;-5.20;99.90;;;;;;5069141;28;20036;-72
2024/01/09 07:10:48;;;;;;;2.58;2.25;;;-5.20;99.90;;;;;;5055384;28;20048;-72
2024/01/09 07:13:14;;;;;;;2.67;2.15;;;-5.20;99.90;;;;;;5068162;28;20051;-72
2024/01/09 07:15:41;;;;;;;2.15;1.77;;;-5.20;99.90;;;;;;5065940;28;20443;-72
2024/01/09 07:18:06;;;;;;;6.70;2.75;;;-5.20;99.90;;;;;;5043485;28;20040;-72
2024/01/09 07:20:32;;;;;;;2.38;1.67;;;-5.20;99.90;;;;;;5050052;28;20036;-72
2024/01/09 07:22:58;;;;;;;1.85;1.75;;;-5.20;99.90;;;;;;5058511;28;20033;-72
2024/01/09 07:25:23;;;;;;;1.85;1.77;;;-5.30;99.90;;;;;;5059013;28;20071;-72
2024/01/09 07:27:49;;;;;;;2.58;2.38;;;-5.30;99.90;;;;;;5058770;28;20055;-72
2024/01/09 07:30:15;;;;;;;2.25;2.15;;;-5.30;99.90;;;;;;5066475;28;20048;-72
2024/01/09 07:32:40;;;;;;;2.33;2.20;;;-5.30;99.90;;;;;;5066902;28;20076;-72
2024/01/09 07:35:07;;;;;;;1.40;1.30;;;-5.30;99.90;;;;;;5058436;28;20040;-72
2024/01/09 07:37:32;;;;;;;1.58;1.48;;;-5.30;99.90;;;;;;5064007;28;20139;-72
2024/01/09 07:39:58;;;;;;;2.78;2.53;;;-5.30;99.90;;;;;;5035272;28;21117;-72
2024/01/09 07:42:24;;;;;;;2.67;2.45;;;-5.30;99.90;;;;;;5042636;28;20095;-72
2024/01/09 07:44:49;;;;;;;1.40;1.30;;;-5.30;99.90;;;;;;5058596;28;20514;-72
2024/01/09 07:47:15;;;;;;;2.30;2.03;;;-5.30;99.90;;;;;;5049292;28;20083;-72
2024/01/09 07:49:41;;;;;;;2.35;2.25;;;-5.30;99.90;;;;;;5058565;28;20043;-72
2024/01/09 07:52:07;;;;;;;1.73;1.63;;;-5.30;99.90;;;;;;5056393;28;20051;-72
2024/01/09 07:54:32;;;;;;;4.70;1.95;;;-5.30;99.90;;;;;;5039783;28;20062;-72
2024/01/09 07:56:59;;;;;;;3.72;2.95;;;-5.30;99.90;;;;;;5053098;28;20044;-72
2024/01/09 07:59:25;;;;;;;1.90;1.58;;;-5.30;99.90;;;;;;5059816;28;20102;-72
2024/01/09 08:01:54;;;;;;;2.10;1.98;;;-5.30;99.90;;;;;;5038388;28;20052;-72
2024/01/09 08:04:22;;;;;;;3.17;2.38;;;-5.30;99.90;;;;;;5060353;28;20029;-72
2024/01/09 08:06:50;;;;;;;3.35;2.42;;;-5.30;99.90;;;;;;5044597;28;20040;-72
2024/01/09 08:09:19;;;;;;;3.50;2.42;;;-5.30;99.90;;;;;;5038381;28;20555;-72
2024/01/09 08:11:46;;;;;;;1.88;1.75;;;-5.30;99.90;;;;;;5055820;28;20041;-72
2024/01/09 08:14:13;;;;;;;3.88;1.95;;;-5.20;99.90;;;;;;5049394;28;20161;-72
2024/01/09 08:16:39;;;;;;;4.22;2.22;;;-5.20;99.90;;;;;;5056550;28;20120;-72
2024/01/09 08:19:04;;;;;;;1.60;1.42;;;-5.20;99.90;;;;;;5059123;28;20503;-72
2024/01/09 08:21:31;;;;;;;13.75;2.90;;;-5.20;99.90;;;;;;5047398;28;20037;-72
2024/01/09 08:23:57;;;;;;;2.85;1.83;;;-5.10;99.90;;;;;;5047172;28;20049;-72
2024/01/09 08:26:23;;;;;;;1.52;1.48;;;-5.10;99.90;;;;;;5065592;28;20175;-72
2024/01/09 08:28:48;;;;;;;2.25;2.05;;;-5.10;99.90;;;;;;5049001;28;20040;-72
2024/01/09 08:31:14;;;;;;;2.67;1.52;;;-5.10;99.90;;;;;;5065744;28;20056;-72
2024/01/09 08:33:39;;;;;;;3.42;2.28;;;-5.00;99.90;;;;;;5040549;28;20039;-73
2024/01/09 08:36:05;;;;;;;11.98;1.85;;;-5.00;99.90;;;;;;5065764;28;20080;-72
2024/01/09 08:38:31;;;;;;;2.30;2.03;;;-5.00;99.90;;;;;;5045919;28;20067;-72
2024/01/09 08:40:57;;;;;;;1.85;1.75;;;-4.90;99.90;;;;;;5057546;28;20028;-72
2024/01/09 08:43:22;;;;;;;3.92;2.72;;;-4.90;99.90;;;;;;5057713;28;20040;-72
2024/01/09 08:45:49;;;;;;;3.53;2.55;;;-4.90;99.90;;;;;;5059081;28;20036;-72
2024/01/09 08:48:15;;;;;;;1.00;1.00;;;-4.80;99.90;;;;;;5048427;28;20068;-72
2024/01/09 08:50:41;;;;;;;4.00;1.73;;;-4.80;99.90;;;;;;5065463;28;20033;-71
2024/01/09 08:53:07;;;;;;;3.42;3.00;;;-4.80;99.90;;;;;;5060013;28;20470;-71
2024/01/09 08:55:33;;;;;;;2.58;2.38;;;-4.70;99.90;;;;;;5053836;28;20040;-71
2024/01/09 08:57:59;;;;;;;6.43;2.70;;;-4.70;99.90;;;;;;5061993;28;20101;-71
2024/01/09 09:00:25;;;;;;;2.92;2.72;;;-4.70;99.90;;;;;;5059434;28;20036;-71
2024/01/09 09:02:51;;;;;;;3.13;2.92;;;-4.60;99.90;;;;;;5046299;28;20251;-71
2024/01/09 09:05:17;;;;;;;2.80;2.47;;;-4.60;99.90;;;;;;5064823;28;20036;-71
2024/01/09 09:07:43;;;;;;;5.40;2.97;;;-4.50;99.90;;;;;;5053400;28;20037;-71
2024/01/09 09:10:09;;;;;;;4.47;2.22;;;-4.50;99.90;;;;;;5052355;28;20067;-71
2024/01/09 09:12:35;;;;;;;1.95;1.85;;;-4.50;99.90;;;;;;5055394;28;20036;-71
2024/01/09 09:15:02;;;;;;;1.50;1.40;;;-4.50;99.90;;;;;;5062222;28;20469;-71
2024/01/09 09:17:29;;;;;;;4.47;4.07;;;-4.50;99.90;;;;;;5037882;28;20135;-71
2024/01/09 09:19:55;;;;;;;6.60;3.00;;;-4.40;99.90;;;;;;5064842;28;20036;-71
2024/01/09 09:22:23;;;;;;;3.58;2.60;;;-4.40;99.90;;;;;;5046842;28;20039;-71
2024/01/09 09:24:49;;;;;;;2.38;1.88;;;-4.30;99.90;;;;;;5064522;28;20044;-71
2024/01/09 09:27:15;;;;;;;4.80;1.65;;;-4.30;99.90;;;;;;5057726;28;20124;-71
2024/01/09 09:29:41;;;;;;;6.03;2.05;;;-4.30;99.90;;;;;;5062932;28;20151;-71
2024/01/09 09:32:07;;;;;;;3.80;1.70;;;-4.20;99.90;;;;;;5061226;28;20045;-71
2024/01/09 09:34:33;;;;;;;2.72;2.25;;;-4.20;99.90;;;;;;5040385;28;20378;-71
2024/01/09 09:37:01;;;;;;;5.18;3.45;;;-4.10;99.90;;;;;;5048007;28;20048;-71
2024/01/09 09:39:27;;;;;;;;;;;-4.10;99.90;;;;;;5054099;28;20075;-71
2024/01/09 09:41:58;;;;;;;5.70;2.47;;;-4.00;99.90;;;;;;5047673;28;19962;-71
2024/01/09 09:44:25;;;;;;;2.35;2.25;;;-4.00;99.90;;;;;;5049432;28;20186;-71
2024/01/09 09:46:52;;;;;;;3.47;2.10;;;-3.90;99.90;;;;;;5037888;28;20458;-71
2024/01/09 09:49:22;;;;;;;1.98;1.88;;;-3.90;99.90;;;;;;5051773;28;20079;-71
2024/01/09 09:51:49;;;;;;;4.32;2.88;;;-3.90;99.90;;;;;;5061578;28;20040;-71
2024/01/09 09:54:15;;;;;;;2.72;2.38;;;-3.80;99.90;;;;;;5058119;28;20484;-72
2024/01/09 09:56:41;;;;;;;1.58;1.48;;;-3.80;99.90;;;;;;5045973;28;20044;-71
2024/01/09 09:59:10;;;;;;;1.20;1.02;;;-3.70;99.90;;;;;;5040976;28;20115;-72
2024/01/09 10:01:37;;;;;;;1.92;1.83;;;-3.70;99.90;;;;;;5035269;28;20497;-72
2024/01/09 10:04:27;;;;;;;2.08;1.90;;;-3.60;99.90;;;;;;5046969;28;20040;-71
2024/01/09 10:06:55;;;;;;;4.03;3.38;;;-3.60;99.90;;;;;;5030693;28;20071;-72
2024/01/09 10:09:22;;;;;;;3.13;2.92;;;-3.60;99.90;;;;;;5041012;28;20105;-71
2024/01/09 10:11:49;;;;;;;3.38;1.83;;;-3.50;99.90;;;;;;5050635;28;20056;-72
2024/01/09 10:14:15;;;;;;;4.00;2.22;;;-3.40;99.90;;;;;;5035580;28;20041;-71
2024/01/09 10:16:55;;;;;;;3.42;2.58;;;-3.40;99.90;;;;;;5049565;28;20044;-72
2024/01/09 10:19:24;;;;;;;2.65;2.42;;;-3.30;99.90;;;;;;5057346;28;20089;-73
2024/01/09 10:21:50;;;;;;;2.70;2.50;;;-3.30;99.90;;;;;;5048543;28;20044;-72
2024/01/09 10:24:16;;;;;;;3.15;2.85;;;-3.20;99.90;;;;;;5027041;28;20024;-72
2024/01/09 10:26:43;;;;;;;3.30;3.05;;;-3.10;99.90;;;;;;5032643;28;20043;-72
2024/01/09 10:29:10;;;;;;;1.77;1.67;;;-3.10;99.90;;;;;;5053058;28;20080;-72
2024/01/09 10:31:36;;;;;;;3.33;2.97;;;-3.00;99.90;;;;;;5049718;28;20045;-71
2024/01/09 10:34:02;;;;;;;3.53;2.88;;;-3.00;99.90;;;;;;5047553;28;20119;-72
2024/01/09 10:36:27;;;;;;;2.42;2.33;;;-3.00;99.90;;;;;;5065664;28;20135;-73
2024/01/09 10:39:06;;;;;;;2.40;2.08;;;-2.90;99.90;;;;;;5050361;28;20136;-72
2024/01/09 10:41:33;;;;;;;2.65;2.40;;;-2.90;99.90;;;;;;5058735;28;20490;-73
2024/01/09 10:44:02;;;;;;;3.35;1.92;;;-2.80;99.90;;;;;;5068640;28;20047;-73
2024/01/09 10:46:31;;;;;;;1.83;1.67;;;-2.80;99.90;;;;;;5069801;28;20526;-72
2024/01/09 10:48:58;;;;;;;6.32;1.63;;;-2.70;99.90;;;;;;5052916;28;20048;-73
2024/01/09 10:51:24;;;;;;;1.98;1.60;;;-2.70;99.90;;;;;;5049333;28;20041;-73
2024/01/09 10:53:51;;;;;;;3.05;2.55;;;-2.60;99.90;;;;;;5068198;28;20040;-72
2024/01/09 10:56:19;;;;;;;1.88;1.38;;;-2.50;99.90;;;;;;5063878;28;20081;-73
2024/01/09 10:58:49;;;;;;;2.63;2.40;;;-2.50;99.90;;;;;;5048601;28;20059;-73
2024/01/09 11:01:14;;;;;;;3.55;2.63;;;-2.40;99.90;;;;;;5067995;28;20115;-73
2024/01/09 11:03:41;;;;;;;1.85;1.75;;;-2.40;99.90;;;;;;5067488;28;20119;-73
2024/01/09 11:06:08;;;;;;;3.08;2.47;;;-2.40;99.90;;;;;;5067706;28;20101;-73
2024/01/09 11:08:37;;;;;;;2.00;1.90;;;-2.30;99.90;;;;;;5066825;28;20041;-73
2024/01/09 11:11:16;;;;;;;6.13;3.75;;;-2.30;99.90;;;;;;5067210;28;20081;-73
2024/01/09 11:13:46;;;;;;;2.30;2.17;;;-2.20;99.90;;;;;;5050139;28;20036;-73
2024/01/09 11:16:15;;;;;;;5.70;3.22;;;-2.10;99.90;;;;;;5038321;28;20052;-74
2024/01/09 11:18:43;;;;;;;2.22;2.03;;;-2.10;99.90;;;;;;5040726;28;20107;-73
2024/01/09 11:21:11;;;;;;;2.03;1.58;;;-2.10;99.90;;;;;;5050172;28;20040;-74
2024/01/09 11:23:43;;;;;;;2.40;2.25;;;-2.00;99.90;;;;;;5062017;28;20037;-72
2024/01/09 11:26:10;;;;;;;4.03;2.13;;;-2.00;99.90;;;;;;5033752;28;20076;-75
2024/01/09 11:28:37;;;;;;;2.15;1.85;;;-1.90;99.90;;;;;;5044907;28;20411;-74
2024/01/09 11:31:12;;;;;;;2.28;2.15;;;-1.90;99.90;;;;;;5064555;28;20060;-74
2024/01/09 11:33:41;;;;;;;2.83;2.50;;;-1.80;99.90;;;;;;5038870;28;20048;-74
2024/01/09 11:36:08;;;;;;;7.70;1.23;;;-1.80;99.90;;;;;;5044809;28;20052;-74
2024/01/09 11:38:34;;;;;;;4.80;2.30;;;-1.80;99.90;;;;;;5064135;28;20455;-74
2024/01/09 11:41:06;;;;;;;3.55;2.47;;;-1.70;99.90;;;;;;5063710;28;20513;-72
2024/01/09 11:44:04;;;;;;;4.80;2.38;;;-1.60;99.90;;;;;;5064349;28;20481;-74
2024/01/09 11:46:34;;;;;;;0.40;0.40;;;-1.60;99.90;;;;;;5067242;28;20797;-74
2024/01/09 11:49:00;;;;;;;2.58;1.92;;;-1.60;99.90;;;;;;5038773;28;20124;-74
2024/01/09 11:51:26;;;;;;;2.50;2.30;;;-1.50;99.90;;;;;;5047371;28;20406;-75
2024/01/09 11:53:52;;;;;;;2.63;2.45;;;-1.50;99.90;;;;;;5067216;28;20037;-75
2024/01/09 11:56:19;;;;;;;2.78;2.58;;;-1.40;99.90;;;;;;5049988;28;20029;-75
2024/01/09 11:58:45;;;;;;;1.88;1.67;;;-1.40;99.90;;;;;;5058591;28;20456;-75
2024/01/09 12:01:12;;;;;;;1.45;1.13;;;-1.30;99.90;;;;;;5047572;28;20375;-75
2024/01/09 12:03:38;;;;;;;1.30;1.20;;;-1.30;99.90;;;;;;5057845;28;20087;-75
2024/01/09 12:06:04;;;;;;;1.85;1.75;;;-1.20;99.90;;;;;;5047146;28;20040;-73
2024/01/09 12:08:33;;;;;;;2.08;1.70;;;-1.10;99.90;;;;;;5060572;28;20107;-76
2024/01/09 12:11:00;;;;;;;;;;;-1.10;99.90;;;;;;5067407;28;20044;-76
2024/01/09 12:13:26;;;;;;;0.80;0.80;;;-1.10;99.90;;;;;;5067332;28;19924;-73
2024/01/09 12:15:52;;;;;;;1.95;1.85;;;-1.00;99.90;;;;;;5050499;28;20028;-73
2024/01/09 12:18:17;;;;;;;1.77;1.67;;;-1.00;99.90;;;;;;5055257;28;20036;-73
2024/01/09 12:20:43;;;;;;;1.50;1.50;;;-0.90;99.90;;;;;;5067489;28;20035;-73
2024/01/09 12:23:09;;;;;;;1.92;1.73;;;-0.90;99.90;;;;;;5066997;28;20442;-73
2024/01/09 12:25:35;;;;;;;4.00;2.20;;;-0.90;99.90;;;;;;5062590;28;20059;-73
2024/01/09 12:28:02;;;;;;;2.38;2.03;;;-0.80;99.90;;;;;;5052356;28;20233;-76
2024/01/09 12:30:31;;;;;;;1.85;1.75;;;-0.80;99.90;;;;;;5068067;28;20060;-73
2024/01/09 12:32:58;;;;;;;1.58;1.48;;;-0.70;99.90;;;;;;5049077;28;20055;-73
2024/01/09 12:35:24;;;;;;;1.30;1.15;;;-0.70;99.90;;;;;;5061741;28;20033;-73
2024/01/09 12:37:50;;;;;;;1.88;1.65;;;-0.70;99.90;;;;;;5050050;28;20045;-73
2024/01/09 12:40:17;;;;;;;1.95;1.83;;;-0.70;99.90;;;;;;5050482;28;20040;-74
2024/01/09 12:42:42;;;;;;;1.75;1.65;;;-0.70;99.90;;;;;;5044305;28;20121;-72
2024/01/09 12:45:11;;;;;;;1.75;1.65;;;-0.70;99.90;;;;;;5045688;28;20174;-73